Terminal Aerodrome Forecast
Issued by NWS

Home | Current Version | Previous Version | Text Only | Print | Product List | Glossary On
Versions: 1 2 3 4 5 6 7 8 9 10 11 12 13
000
FTUS45 KFGZ 290500
TAFGCN
TAF
KGCN 290529Z 2906/3006 VRB03KT P6SM SKC
     FM291800 22009G16KT P6SM SCT250
     FM300200 VRB03KT P6SM SCT250=

USA.gov is the U.S. government's official web portal to all federal, state and local government web resources and services.